Time;durP1;ratioP1;P1;durP2;ratioP2;P2;SDS_P1;SDS_P2;PMS_P1;PMS_P2;Temp;Humidity;BMP_temperature;BMP_pressure;BME280_temperature;BME280_humidity;BME280_pressure;Samples;Min_cycle;Max_cycle;Signal;HPM_P1;HPM_P2
2023/06/30 00:03:04;;;;;;;7.63;3.70;;;;;;;;;;6211208;28;20561;-71
2023/06/30 00:06:09;;;;;;;14.18;3.72;;;;;;;;;;6212780;28;20253;-71
2023/06/30 00:09:15;;;;;;;12.55;3.42;;;;;;;;;;6211065;28;20393;-71
2023/06/30 00:12:20;;;;;;;13.65;3.28;;;;;;;;;;6211796;28;20254;-70
2023/06/30 00:15:24;;;;;;;7.57;3.47;;;;;;;;;;6230899;28;20300;-71
2023/06/30 00:18:29;;;;;;;6.25;3.45;;;;;;;;;;6235905;28;20306;-71
2023/06/30 00:21:34;;;;;;;11.13;3.65;;;;;;;;;;6236045;28;20241;-70
2023/06/30 00:24:40;;;;;;;17.50;4.05;;;;;;;;;;6235297;28;20301;-72
2023/06/30 00:27:44;;;;;;;19.58;3.90;;;;;;;;;;6234858;28;20268;-72
2023/06/30 00:30:49;;;;;;;24.70;4.22;;;;;;;;;;6234207;28;20462;-70
2023/06/30 00:33:54;;;;;;;15.88;3.60;;;;;;;;;;6235689;28;20292;-72
2023/06/30 00:36:58;;;;;;;12.55;3.60;;;;;;;;;;6217473;28;20269;-71
2023/06/30 00:40:05;;;;;;;9.88;3.28;;;;;;;;;;6234763;28;20595;-70
2023/06/30 00:43:09;;;;;;;8.27;3.40;;;;;;;;;;6217328;28;20425;-71
2023/06/30 00:46:18;;;;;;;13.23;3.50;;;;;;;;;;6235297;28;20379;-71
2023/06/30 00:49:23;;;;;;;5.30;3.60;;;;;;;;;;6233550;28;20461;-70
2023/06/30 00:52:28;;;;;;;12.50;3.65;;;;;;;;;;6235436;28;20237;-71
2023/06/30 00:55:34;;;;;;;16.83;4.28;;;;;;;;;;6216443;28;20377;-70
2023/06/30 00:58:39;;;;;;;26.75;4.65;;;;;;;;;;6239561;28;20303;-71
2023/06/30 01:01:48;;;;;;;22.55;3.95;;;;;;;;;;6221706;28;20310;-71
2023/06/30 01:04:58;;;;;;;24.63;4.25;;;;;;;;;;6240030;28;20396;-71
2023/06/30 01:08:09;;;;;;;19.67;3.88;;;;;;;;;;6239509;28;20371;-71
2023/06/30 01:11:16;;;;;;;10.32;4.00;;;;;;;;;;6225686;28;20421;-71
2023/06/30 01:14:21;;;;;;;7.53;3.90;;;;;;;;;;6215342;28;20297;-71
2023/06/30 01:17:27;;;;;;;19.27;4.05;;;;;;;;;;6215996;28;20561;-71
2023/06/30 01:20:33;;;;;;;24.02;4.53;;;;;;;;;;6197798;28;20296;-71
2023/06/30 01:23:42;;;;;;;21.92;5.55;;;;;;;;;;6197781;28;20305;-71
2023/06/30 01:26:49;;;;;;;29.70;5.25;;;;;;;;;;6215250;28;20428;-71
2023/06/30 01:29:54;;;;;;;19.70;4.43;;;;;;;;;;6196740;28;20613;-71
2023/06/30 01:32:59;;;;;;;17.52;4.20;;;;;;;;;;6215071;28;20426;-71
2023/06/30 01:36:05;;;;;;;17.10;4.22;;;;;;;;;;6215579;28;20245;-73
2023/06/30 01:39:09;;;;;;;10.43;4.22;;;;;;;;;;6214837;28;20297;-71
2023/06/30 01:42:17;;;;;;;19.80;4.28;;;;;;;;;;6214090;28;20277;-72
2023/06/30 01:45:22;;;;;;;9.05;3.97;;;;;;;;;;6212915;28;20601;-72
2023/06/30 01:48:27;;;;;;;13.20;4.18;;;;;;;;;;6214539;28;20300;-70
2023/06/30 01:51:31;;;;;;;9.18;4.03;;;;;;;;;;6215491;28;20238;-71
2023/06/30 01:54:36;;;;;;;12.27;4.20;;;;;;;;;;6196739;28;20489;-70
2023/06/30 01:57:42;;;;;;;12.05;3.83;;;;;;;;;;6213091;28;20401;-71
2023/06/30 02:00:46;;;;;;;8.00;4.07;;;;;;;;;;6214653;28;20273;-70
2023/06/30 02:03:51;;;;;;;8.50;4.07;;;;;;;;;;6236880;28;20304;-70
2023/06/30 02:06:56;;;;;;;11.05;4.15;;;;;;;;;;6221198;28;20545;-72
2023/06/30 02:10:01;;;;;;;9.90;4.20;;;;;;;;;;6230825;28;20479;-71
2023/06/30 02:13:07;;;;;;;8.20;4.18;;;;;;;;;;6237145;28;20318;-71
2023/06/30 02:16:13;;;;;;;9.10;4.07;;;;;;;;;;6237023;28;20272;-71
2023/06/30 02:19:18;;;;;;;5.57;3.95;;;;;;;;;;6236809;28;20296;-71
2023/06/30 02:22:22;;;;;;;6.82;4.10;;;;;;;;;;6238833;28;20249;-70
2023/06/30 02:25:28;;;;;;;8.88;4.05;;;;;;;;;;6236447;28;20293;-70
2023/06/30 02:28:33;;;;;;;9.40;4.32;;;;;;;;;;6236173;28;20308;-72
2023/06/30 02:31:38;;;;;;;4.28;3.90;;;;;;;;;;6237397;28;20308;-71
2023/06/30 02:34:42;;;;;;;6.65;4.05;;;;;;;;;;6237911;28;20301;-71
2023/06/30 02:37:47;;;;;;;3.80;3.50;;;;;;;;;;6236177;28;20281;-71
2023/06/30 02:40:52;;;;;;;5.80;3.80;;;;;;;;;;6238466;28;20257;-72
2023/06/30 02:43:59;;;;;;;4.45;3.70;;;;;;;;;;6237542;28;20296;-71
2023/06/30 02:47:04;;;;;;;3.70;3.45;;;;;;;;;;6236520;28;20276;-70
2023/06/30 02:50:10;;;;;;;3.65;3.53;;;;;;;;;;6236565;28;20296;-70
2023/06/30 02:53:19;;;;;;;4.03;3.70;;;;;;;;;;6219136;28;20285;-71
2023/06/30 02:56:25;;;;;;;5.47;3.55;;;;;;;;;;6236358;28;20281;-72
2023/06/30 02:59:31;;;;;;;5.63;3.72;;;;;;;;;;6220139;28;20296;-72
2023/06/30 03:02:36;;;;;;;3.90;3.70;;;;;;;;;;6232471;28;20296;-71
2023/06/30 03:05:42;;;;;;;8.77;3.63;;;;;;;;;;6235792;28;20272;-71
2023/06/30 03:08:48;;;;;;;4.05;3.53;;;;;;;;;;6235426;28;20564;-71
2023/06/30 03:11:54;;;;;;;3.88;3.72;;;;;;;;;;6235788;28;20292;-71
2023/06/30 03:15:01;;;;;;;4.10;3.60;;;;;;;;;;6235237;28;20392;-71
2023/06/30 03:18:09;;;;;;;4.70;3.72;;;;;;;;;;6235906;28;20292;-70
2023/06/30 03:21:13;;;;;;;6.63;3.85;;;;;;;;;;6236938;28;20251;-71
2023/06/30 03:24:19;;;;;;;3.95;3.50;;;;;;;;;;6234683;28;20300;-71
2023/06/30 03:27:24;;;;;;;5.57;3.75;;;;;;;;;;6235117;28;20273;-70
2023/06/30 03:30:29;;;;;;;3.80;3.45;;;;;;;;;;6236032;28;20296;-71
2023/06/30 03:33:34;;;;;;;3.78;3.60;;;;;;;;;;6236742;28;20580;-70
2023/06/30 03:36:39;;;;;;;3.83;3.65;;;;;;;;;;6235348;28;20272;-73
2023/06/30 03:39:44;;;;;;;3.72;3.53;;;;;;;;;;6234299;28;20306;-71
2023/06/30 03:42:49;;;;;;;3.97;3.78;;;;;;;;;;6218450;28;20292;-70
2023/06/30 03:45:55;;;;;;;4.03;3.83;;;;;;;;;;6219125;28;20272;-71
2023/06/30 03:49:00;;;;;;;3.90;3.60;;;;;;;;;;6234578;28;20322;-72
2023/06/30 03:52:05;;;;;;;5.00;3.60;;;;;;;;;;6228781;28;20501;-71
2023/06/30 03:55:10;;;;;;;13.95;3.90;;;;;;;;;;6217764;28;20315;-72
2023/06/30 03:58:15;;;;;;;4.03;3.83;;;;;;;;;;6235744;28;20597;-70
2023/06/30 04:01:21;;;;;;;6.72;3.42;;;;;;;;;;6235986;28;20298;-70
2023/06/30 04:04:26;;;;;;;3.80;3.50;;;;;;;;;;6235718;28;20308;-71
2023/06/30 04:07:30;;;;;;;4.18;3.50;;;;;;;;;;6235787;28;20240;-72
2023/06/30 04:10:35;;;;;;;7.53;3.85;;;;;;;;;;6235994;28;20265;-71
2023/06/30 04:13:40;;;;;;;3.90;3.60;;;;;;;;;;6233865;28;20476;-71
2023/06/30 04:16:46;;;;;;;4.68;3.60;;;;;;;;;;6235636;28;20234;-71
2023/06/30 04:19:50;;;;;;;8.02;3.70;;;;;;;;;;6236057;28;20296;-71
2023/06/30 04:22:55;;;;;;;10.00;4.15;;;;;;;;;;6235186;28;20297;-71
2023/06/30 04:26:01;;;;;;;7.78;3.92;;;;;;;;;;6235953;28;20513;-70
2023/06/30 04:29:06;;;;;;;4.47;3.63;;;;;;;;;;6235511;28;20301;-72
2023/06/30 04:32:11;;;;;;;7.68;3.70;;;;;;;;;;6235946;28;20534;-71
2023/06/30 04:35:16;;;;;;;8.48;3.72;;;;;;;;;;6235196;28;20288;-71
2023/06/30 04:38:23;;;;;;;4.13;3.65;;;;;;;;;;6235106;28;20474;-71
2023/06/30 04:41:28;;;;;;;3.40;3.40;;;;;;;;;;6235736;28;20245;-70
2023/06/30 04:44:33;;;;;;;10.00;4.22;;;;;;;;;;6235147;28;20361;-69
2023/06/30 04:47:39;;;;;;;7.45;3.42;;;;;;;;;;6234711;28;20245;-71
2023/06/30 04:50:44;;;;;;;4.20;3.80;;;;;;;;;;6234997;28;20513;-70
2023/06/30 04:53:49;;;;;;;4.28;3.53;;;;;;;;;;6234581;28;20293;-70
2023/06/30 04:56:53;;;;;;;6.53;3.53;;;;;;;;;;6234986;28;20244;-70
2023/06/30 04:59:58;;;;;;;4.55;3.83;;;;;;;;;;6235225;28;20312;-70
2023/06/30 05:03:05;;;;;;;8.27;4.07;;;;;;;;;;6233980;28;20568;-72
2023/06/30 05:06:10;;;;;;;3.92;3.40;;;;;;;;;;6234811;28;20298;-71
2023/06/30 05:09:16;;;;;;;4.05;3.88;;;;;;;;;;6234442;28;20292;-71
2023/06/30 05:12:20;;;;;;;5.03;3.75;;;;;;;;;;6234773;28;20589;-71
2023/06/30 05:15:25;;;;;;;6.43;3.85;;;;;;;;;;6234178;28;20474;-70
2023/06/30 05:18:31;;;;;;;3.72;3.53;;;;;;;;;;6232835;28;20293;-70
2023/06/30 05:21:35;;;;;;;4.65;3.50;;;;;;;;;;6234270;28;20435;-70
2023/06/30 05:24:40;;;;;;;4.68;3.83;;;;;;;;;;6233406;28;20300;-71
2023/06/30 05:27:44;;;;;;;3.70;3.50;;;;;;;;;;6233349;28;20380;-69
2023/06/30 05:30:49;;;;;;;3.50;3.30;;;;;;;;;;6234081;28;20147;-70
2023/06/30 05:33:55;;;;;;;4.90;3.53;;;;;;;;;;6233688;28;20281;-70
2023/06/30 05:36:59;;;;;;;3.30;3.10;;;;;;;;;;6233997;28;20257;-70
2023/06/30 05:40:05;;;;;;;3.40;3.20;;;;;;;;;;6233636;28;20504;-71
2023/06/30 05:43:09;;;;;;;4.97;2.97;;;;;;;;;;6234377;28;20473;-71
2023/06/30 05:46:14;;;;;;;4.18;3.15;;;;;;;;;;6238391;28;20538;-71
2023/06/30 05:49:20;;;;;;;3.47;3.15;;;;;;;;;;6238176;28;20600;-69
2023/06/30 05:52:27;;;;;;;3.47;3.28;;;;;;;;;;6238623;28;20379;-70
2023/06/30 05:55:31;;;;;;;4.47;3.05;;;;;;;;;;6238127;28;20288;-69
2023/06/30 05:58:39;;;;;;;3.75;3.45;;;;;;;;;;6237972;28;20315;-71
2023/06/30 06:01:44;;;;;;;4.55;3.88;;;;;;;;;;6238167;28;20577;-72
2023/06/30 06:04:51;;;;;;;3.95;3.63;;;;;;;;;;6237870;28;20296;-70
2023/06/30 06:07:56;;;;;;;3.38;3.28;;;;;;;;;;6238196;28;20298;-71
2023/06/30 06:11:01;;;;;;;4.13;3.70;;;;;;;;;;6238576;28;20257;-71
2023/06/30 06:14:05;;;;;;;6.85;3.67;;;;;;;;;;6230078;28;20296;-70
2023/06/30 06:17:10;;;;;;;4.55;3.80;;;;;;;;;;6238417;28;20491;-69
2023/06/30 06:20:16;;;;;;;4.35;4.03;;;;;;;;;;6237582;28;20297;-73
2023/06/30 06:23:22;;;;;;;7.88;3.75;;;;;;;;;;6237645;28;20554;-71
2023/06/30 06:26:27;;;;;;;5.43;3.50;;;;;;;;;;6237516;28;20287;-71
2023/06/30 06:29:31;;;;;;;3.28;3.17;;;;;;;;;;6237401;28;20453;-69
2023/06/30 06:32:36;;;;;;;10.73;3.60;;;;;;;;;;6236939;28;20402;-72
2023/06/30 06:35:42;;;;;;;4.47;3.40;;;;;;;;;;6237452;28;20241;-71
2023/06/30 06:38:47;;;;;;;9.57;3.80;;;;;;;;;;6219301;28;20312;-71
2023/06/30 06:41:51;;;;;;;4.38;4.07;;;;;;;;;;6237840;28;20253;-71
2023/06/30 06:44:58;;;;;;;4.25;3.85;;;;;;;;;;6235406;28;20479;-69
2023/06/30 06:48:23;;;;;;;6.13;4.00;;;;;;;;;;6236995;28;20304;-70
2023/06/30 06:51:29;;;;;;;3.72;3.42;;;;;;;;;;6237120;28;20341;-70
2023/06/30 06:54:34;;;;;;;5.07;3.60;;;;;;;;;;6236488;28;20292;-72
2023/06/30 06:57:38;;;;;;;3.95;3.70;;;;;;;;;;6237096;28;20237;-72
2023/06/30 07:00:44;;;;;;;4.15;3.95;;;;;;;;;;6237214;28;20257;-70
2023/06/30 07:03:48;;;;;;;4.05;3.70;;;;;;;;;;6236872;28;20289;-70
2023/06/30 07:06:54;;;;;;;11.73;4.10;;;;;;;;;;6237610;28;20249;-70
2023/06/30 07:09:59;;;;;;;5.45;3.80;;;;;;;;;;6236463;28;20296;-70
2023/06/30 07:13:04;;;;;;;6.00;5.43;;;;;;;;;;6236907;28;20292;-69
2023/06/30 07:16:09;;;;;;;6.80;5.68;;;;;;;;;;6236806;28;20237;-70
2023/06/30 07:19:13;;;;;;;7.80;5.35;;;;;;;;;;6236250;28;20570;-70
2023/06/30 07:22:20;;;;;;;5.65;5.20;;;;;;;;;;6236396;28;20250;-69
2023/06/30 07:25:25;;;;;;;5.60;5.13;;;;;;;;;;6237110;28;20585;-70
2023/06/30 07:28:31;;;;;;;8.05;6.05;;;;;;;;;;6235857;28;20296;-70
2023/06/30 07:31:35;;;;;;;11.63;6.38;;;;;;;;;;6236650;28;20268;-70
2023/06/30 07:34:41;;;;;;;6.93;6.00;;;;;;;;;;6236311;28;20293;-70
2023/06/30 07:37:47;;;;;;;6.13;5.63;;;;;;;;;;6235104;28;20281;-69
2023/06/30 07:40:51;;;;;;;8.23;5.55;;;;;;;;;;6236463;28;20236;-70
2023/06/30 07:44:00;;;;;;;5.20;4.90;;;;;;;;;;6235757;28;20591;-71
2023/06/30 07:47:05;;;;;;;6.45;5.90;;;;;;;;;;6236097;28;20472;-70
2023/06/30 07:50:12;;;;;;;12.48;5.78;;;;;;;;;;6235703;28;20293;-69
2023/06/30 07:53:18;;;;;;;10.77;6.10;;;;;;;;;;6235611;28;20537;-68
2023/06/30 07:56:22;;;;;;;8.38;5.40;;;;;;;;;;6235649;28;20245;-69
2023/06/30 07:59:27;;;;;;;11.48;5.18;;;;;;;;;;6235537;28;20345;-68
2023/06/30 08:02:32;;;;;;;8.35;5.22;;;;;;;;;;6234912;28;20472;-69
2023/06/30 08:05:36;;;;;;;7.28;5.30;;;;;;;;;;6235354;28;20236;-71
2023/06/30 08:08:43;;;;;;;8.63;5.28;;;;;;;;;;6235053;28;20303;-70
2023/06/30 08:11:47;;;;;;;12.07;5.43;;;;;;;;;;6235417;28;20284;-70
2023/06/30 08:14:52;;;;;;;6.68;4.90;;;;;;;;;;6235261;28;20464;-69
2023/06/30 08:17:57;;;;;;;5.50;4.70;;;;;;;;;;6235262;28;20423;-69
2023/06/30 08:21:02;;;;;;;6.18;4.63;;;;;;;;;;6235350;28;20241;-68
2023/06/30 08:24:09;;;;;;;4.55;4.07;;;;;;;;;;6235292;28;20304;-67
2023/06/30 08:27:16;;;;;;;4.40;4.20;;;;;;;;;;6235109;28;20241;-69
2023/06/30 08:30:20;;;;;;;4.85;4.25;;;;;;;;;;6234809;28;20300;-68
2023/06/30 08:33:29;;;;;;;5.38;4.57;;;;;;;;;;6233012;28;20391;-69
2023/06/30 08:36:36;;;;;;;3.83;3.72;;;;;;;;;;6235339;28;20280;-69
2023/06/30 08:39:42;;;;;;;4.90;3.95;;;;;;;;;;6235028;28;20296;-69
2023/06/30 08:42:50;;;;;;;9.75;3.90;;;;;;;;;;6233148;28;20293;-69
2023/06/30 08:45:55;;;;;;;4.95;3.67;;;;;;;;;;6235190;28;20253;-69
2023/06/30 08:48:59;;;;;;;4.85;3.60;;;;;;;;;;6234689;28;20296;-71
2023/06/30 08:52:05;;;;;;;4.22;3.78;;;;;;;;;;6234337;28;20292;-73
2023/06/30 08:55:12;;;;;;;6.25;4.13;;;;;;;;;;6234804;28;20329;-71
2023/06/30 08:58:16;;;;;;;5.95;3.95;;;;;;;;;;6234423;28;20425;-70
2023/06/30 09:01:29;;;;;;;7.55;4.28;;;;;;;;;;6234954;28;20292;-71
2023/06/30 09:04:34;;;;;;;5.03;3.10;;;;;;;;;;6234530;28;20292;-71
2023/06/30 09:07:43;;;;;;;3.70;3.40;;;;;;;;;;6234498;28;20269;-70
2023/06/30 09:10:49;;;;;;;6.93;3.30;;;;;;;;;;6234912;28;20249;-69
2023/06/30 09:13:56;;;;;;;6.22;3.42;;;;;;;;;;6234460;28;20479;-70
2023/06/30 09:17:01;;;;;;;7.60;2.85;;;;;;;;;;6234416;28;20261;-70
2023/06/30 09:20:08;;;;;;;4.70;3.10;;;;;;;;;;6231533;28;20296;-71
2023/06/30 09:23:12;;;;;;;3.70;3.20;;;;;;;;;;6239078;28;20300;-69
2023/06/30 09:26:19;;;;;;;3.78;3.17;;;;;;;;;;6239663;28;20237;-69
2023/06/30 09:29:24;;;;;;;3.33;2.80;;;;;;;;;;6239229;28;20291;-69
2023/06/30 09:32:31;;;;;;;7.15;3.65;;;;;;;;;;6237133;28;20488;-71
2023/06/30 09:35:39;;;;;;;5.63;3.38;;;;;;;;;;6239406;28;20253;-68
2023/06/30 09:38:44;;;;;;;3.67;2.83;;;;;;;;;;6238632;28;20605;-69
2023/06/30 09:41:51;;;;;;;4.50;3.40;;;;;;;;;;6238962;28;20337;-68
2023/06/30 09:44:55;;;;;;;7.63;2.80;;;;;;;;;;6238493;28;20300;-69
2023/06/30 09:48:00;;;;;;;5.18;2.83;;;;;;;;;;6238527;28;20300;-68
2023/06/30 09:51:06;;;;;;;7.15;3.30;;;;;;;;;;6238658;28;20240;-69
2023/06/30 09:54:11;;;;;;;3.72;2.95;;;;;;;;;;6238639;28;20300;-68
2023/06/30 09:57:17;;;;;;;3.60;2.78;;;;;;;;;;6239105;28;20390;-70
2023/06/30 10:00:25;;;;;;;5.13;2.70;;;;;;;;;;6238092;28;20296;-66
2023/06/30 10:03:48;;;;;;;3.53;2.67;;;;;;;;;;6237501;28;20304;-70
2023/06/30 10:06:53;;;;;;;2.60;2.40;;;;;;;;;;6220963;28;20269;-69
2023/06/30 10:09:58;;;;;;;2.63;2.53;;;;;;;;;;6237772;28;20288;-71
2023/06/30 10:13:04;;;;;;;2.55;2.45;;;;;;;;;;6236209;28;20439;-67
2023/06/30 10:16:10;;;;;;;2.30;2.15;;;;;;;;;;6237869;28;20237;-69
2023/06/30 10:19:15;;;;;;;5.18;2.38;;;;;;;;;;6237470;28;20292;-68
2023/06/30 10:22:19;;;;;;;4.32;2.30;;;;;;;;;;6238452;28;20472;-69
2023/06/30 10:25:25;;;;;;;2.20;2.10;;;;;;;;;;6237741;28;20299;-69
2023/06/30 10:28:31;;;;;;;2.70;2.10;;;;;;;;;;6237154;28;20304;-69
2023/06/30 10:31:37;;;;;;;2.58;2.47;;;;;;;;;;6236861;28;20245;-68
2023/06/30 10:34:43;;;;;;;4.43;2.13;;;;;;;;;;6237356;28;20300;-68
2023/06/30 10:37:47;;;;;;;4.72;2.83;;;;;;;;;;6236977;28;20245;-69
2023/06/30 10:41:12;;;;;;;3.58;2.50;;;;;;;;;;6237823;28;20534;-68
2023/06/30 10:44:19;;;;;;;3.25;2.50;;;;;;;;;;6237241;28;20300;-69
2023/06/30 10:47:24;;;;;;;2.55;2.30;;;;;;;;;;6237283;28;20384;-69
2023/06/30 10:50:29;;;;;;;2.60;2.50;;;;;;;;;;6237070;28;20328;-69
2023/06/30 10:53:34;;;;;;;2.88;2.35;;;;;;;;;;6236543;28;20498;-69
2023/06/30 10:56:40;;;;;;;3.58;2.40;;;;;;;;;;6237200;28;20530;-70
2023/06/30 10:59:47;;;;;;;2.63;2.47;;;;;;;;;;6236953;28;20309;-69
2023/06/30 11:02:56;;;;;;;2.60;2.50;;;;;;;;;;6236558;28;20422;-70
2023/06/30 11:06:18;;;;;;;4.18;2.83;;;;;;;;;;6237056;28;20307;-71
2023/06/30 11:09:23;;;;;;;3.22;2.92;;;;;;;;;;6236906;28;20300;-69
2023/06/30 11:12:29;;;;;;;2.83;2.70;;;;;;;;;;6212880;28;20242;-68
2023/06/30 11:15:40;;;;;;;2.50;2.40;;;;;;;;;;6211742;28;20456;-70
2023/06/30 11:19:00;;;;;;;5.07;2.42;;;;;;;;;;6211998;28;20615;-70
2023/06/30 11:22:24;;;;;;;2.35;2.30;;;;;;;;;;6212269;28;20254;-69
2023/06/30 11:25:31;;;;;;;3.22;2.70;;;;;;;;;;6211553;28;20281;-70
2023/06/30 11:28:37;;;;;;;2.97;2.88;;;;;;;;;;6211792;28;20289;-72
2023/06/30 11:31:43;;;;;;;3.60;2.50;;;;;;;;;;6212229;28;20291;-72
2023/06/30 11:34:48;;;;;;;2.30;2.30;;;;;;;;;;6211693;28;20309;-69
2023/06/30 11:37:53;;;;;;;3.03;2.60;;;;;;;;;;6211042;28;20292;-70
2023/06/30 11:41:00;;;;;;;3.15;2.95;;;;;;;;;;6194088;28;20341;-69
2023/06/30 11:44:05;;;;;;;2.75;2.75;;;;;;;;;;6211523;28;20300;-69
2023/06/30 11:47:11;;;;;;;2.90;2.80;;;;;;;;;;6211574;28;20242;-70
2023/06/30 11:50:16;;;;;;;2.67;2.47;;;;;;;;;;6211175;28;20297;-70
2023/06/30 11:53:24;;;;;;;2.78;2.58;;;;;;;;;;6211025;28;20296;-70
2023/06/30 11:56:29;;;;;;;2.80;2.70;;;;;;;;;;6211262;28;20269;-69
2023/06/30 11:59:34;;;;;;;2.80;2.70;;;;;;;;;;6192722;28;20297;-70
2023/06/30 12:02:45;;;;;;;2.90;2.70;;;;;;;;;;6210650;28;20294;-69
2023/06/30 12:05:57;;;;;;;5.80;2.55;;;;;;;;;;6209505;28;20450;-69
2023/06/30 12:09:03;;;;;;;3.47;3.17;;;;;;;;;;6211148;28;20305;-69
2023/06/30 12:12:09;;;;;;;3.10;2.50;;;;;;;;;;6233701;28;20257;-69
2023/06/30 12:15:14;;;;;;;2.58;2.38;;;;;;;;;;6235869;28;20482;-70
2023/06/30 12:18:36;;;;;;;5.35;2.72;;;;;;;;;;6236370;28;20289;-69
2023/06/30 12:21:52;;;;;;;2.78;2.58;;;;;;;;;;6236430;28;20237;-69
2023/06/30 12:24:58;;;;;;;2.42;2.30;;;;;;;;;;6235107;28;20296;-68
2023/06/30 12:28:04;;;;;;;3.90;2.55;;;;;;;;;;6235208;28;20296;-69
2023/06/30 12:31:08;;;;;;;2.00;2.00;;;;;;;;;;6235173;28;20284;-68
2023/06/30 12:34:21;;;;;;;4.70;1.85;;;;;;;;;;6216780;28;20478;-69
2023/06/30 12:37:29;;;;;;;1.90;1.80;;;;;;;;;;6235242;28;20442;-69
2023/06/30 12:40:34;;;;;;;6.50;1.95;;;;;;;;;;6235373;28;20272;-70
2023/06/30 12:43:39;;;;;;;2.10;2.03;;;;;;;;;;6234841;28;20304;-69
2023/06/30 12:46:43;;;;;;;2.13;2.03;;;;;;;;;;6235657;28;20299;-69
2023/06/30 12:49:50;;;;;;;7.07;2.30;;;;;;;;;;6235010;28;20292;-68
2023/06/30 12:52:56;;;;;;;3.88;2.20;;;;;;;;;;6220541;28;20300;-69
2023/06/30 12:56:01;;;;;;;2.42;2.05;;;;;;;;;;6243012;28;20268;-69
2023/06/30 12:59:07;;;;;;;1.92;1.80;;;;;;;;;;6243018;28;20305;-69
2023/06/30 13:02:11;;;;;;;2.35;2.17;;;;;;;;;;6242982;28;20329;-69
2023/06/30 13:05:17;;;;;;;2.65;2.50;;;;;;;;;;6242918;28;20300;-68
2023/06/30 13:08:22;;;;;;;1.77;1.77;;;;;;;;;;6242863;28;20297;-69
2023/06/30 13:11:27;;;;;;;2.97;2.17;;;;;;;;;;6243163;28;20419;-69
2023/06/30 13:14:31;;;;;;;6.45;2.47;;;;;;;;;;6244032;28;20296;-70
2023/06/30 13:17:37;;;;;;;2.30;2.30;;;;;;;;;;6242444;28;20248;-68
2023/06/30 13:20:43;;;;;;;2.50;2.40;;;;;;;;;;6243031;28;20261;-70
2023/06/30 13:23:49;;;;;;;5.97;2.25;;;;;;;;;;6242387;28;20295;-70
2023/06/30 13:26:54;;;;;;;4.72;2.47;;;;;;;;;;6242184;28;20276;-70
2023/06/30 13:29:59;;;;;;;2.17;2.17;;;;;;;;;;6242492;28;20292;-70
2023/06/30 13:33:05;;;;;;;3.15;2.40;;;;;;;;;;6234086;28;20299;-68
2023/06/30 13:36:14;;;;;;;4.57;2.03;;;;;;;;;;6242571;28;20265;-69
2023/06/30 13:39:18;;;;;;;3.08;2.10;;;;;;;;;;6242472;28;20621;-69
2023/06/30 13:42:24;;;;;;;1.88;1.70;;;;;;;;;;6242807;28;20245;-70
2023/06/30 13:45:28;;;;;;;5.75;2.30;;;;;;;;;;6242405;28;20288;-69
2023/06/30 13:48:33;;;;;;;4.00;1.80;;;;;;;;;;6242142;28;20299;-69
2023/06/30 13:51:39;;;;;;;3.47;1.70;;;;;;;;;;6243020;28;20292;-69
2023/06/30 13:54:44;;;;;;;1.60;1.50;;;;;;;;;;6242052;28;20436;-70
2023/06/30 13:57:48;;;;;;;11.00;1.30;;;;;;;;;;6242187;28;20292;-69
2023/06/30 14:00:53;;;;;;;1.23;1.23;;;;;;;;;;6241033;28;20428;-69
2023/06/30 14:03:58;;;;;;;1.38;1.38;;;;;;;;;;6239973;28;20308;-70
2023/06/30 14:07:04;;;;;;;2.17;1.60;;;;;;;;;;6238528;28;20249;-70
2023/06/30 14:10:09;;;;;;;1.58;1.48;;;;;;;;;;6237921;28;20292;-69
2023/06/30 14:13:14;;;;;;;4.03;1.58;;;;;;;;;;6238251;28;20292;-70
2023/06/30 14:16:18;;;;;;;1.98;1.42;;;;;;;;;;6238277;28;20268;-69
2023/06/30 14:19:23;;;;;;;2.83;1.60;;;;;;;;;;6237985;28;20296;-69
2023/06/30 14:22:29;;;;;;;3.15;1.48;;;;;;;;;;6238610;28;20249;-69
2023/06/30 14:25:34;;;;;;;1.73;1.70;;;;;;;;;;6237699;28;20274;-70
2023/06/30 14:28:38;;;;;;;4.32;1.70;;;;;;;;;;6237695;28;20621;-70
2023/06/30 14:31:43;;;;;;;3.60;1.63;;;;;;;;;;6238558;28;20240;-69
2023/06/30 14:34:47;;;;;;;3.60;2.70;;;;;;;;;;6237811;28;20468;-70
2023/06/30 14:37:53;;;;;;;2.60;2.50;;;;;;;;;;6237688;28;20296;-68
2023/06/30 14:40:58;;;;;;;7.25;2.60;;;;;;;;;;6238107;28;20245;-70
2023/06/30 14:44:03;;;;;;;4.10;2.90;;;;;;;;;;6237507;28;20292;-69
2023/06/30 14:47:08;;;;;;;2.65;2.55;;;;;;;;;;6238671;28;20614;-70
2023/06/30 14:50:13;;;;;;;2.90;2.85;;;;;;;;;;6219641;28;20296;-68
2023/06/30 14:53:19;;;;;;;3.55;3.30;;;;;;;;;;6237222;28;20299;-70
2023/06/30 14:56:23;;;;;;;3.72;3.45;;;;;;;;;;6237668;28;20329;-69
2023/06/30 14:59:29;;;;;;;4.45;3.22;;;;;;;;;;6236924;28;20565;-69
2023/06/30 15:02:33;;;;;;;4.20;3.90;;;;;;;;;;6236517;28;20288;-69
2023/06/30 15:05:38;;;;;;;4.05;3.90;;;;;;;;;;6237455;28;20546;-70
2023/06/30 15:08:44;;;;;;;3.83;3.65;;;;;;;;;;6236912;28;20292;-70
2023/06/30 15:11:49;;;;;;;4.70;3.85;;;;;;;;;;6237137;28;20253;-69
2023/06/30 15:14:54;;;;;;;3.92;3.63;;;;;;;;;;6236503;28;20316;-70
2023/06/30 15:17:59;;;;;;;5.20;4.55;;;;;;;;;;6236569;28;20304;-69
2023/06/30 15:21:04;;;;;;;5.10;4.60;;;;;;;;;;6229293;28;20245;-68
2023/06/30 15:24:10;;;;;;;6.22;5.25;;;;;;;;;;6236963;28;20300;-69
2023/06/30 15:27:15;;;;;;;6.03;5.53;;;;;;;;;;6236483;28;20549;-69
2023/06/30 15:30:20;;;;;;;5.95;5.50;;;;;;;;;;6236195;28;20292;-69
2023/06/30 15:33:25;;;;;;;7.20;5.20;;;;;;;;;;6236412;28;20316;-69
2023/06/30 15:36:30;;;;;;;6.28;5.72;;;;;;;;;;6236183;28;20268;-69
2023/06/30 15:39:36;;;;;;;7.30;6.22;;;;;;;;;;6236258;28;20301;-68
2023/06/30 15:42:40;;;;;;;6.43;5.80;;;;;;;;;;6234202;28;20277;-70
2023/06/30 15:45:46;;;;;;;9.88;5.90;;;;;;;;;;6235692;28;20257;-70
2023/06/30 15:48:51;;;;;;;7.03;5.82;;;;;;;;;;6235483;28;20610;-70
2023/06/30 15:51:55;;;;;;;8.50;7.68;;;;;;;;;;6236008;28;20250;-70
2023/06/30 15:55:12;;;;;;;7.13;6.47;;;;;;;;;;6235421;28;20300;-70
2023/06/30 15:58:17;;;;;;;9.45;6.43;;;;;;;;;;6235300;28;20301;-69
2023/06/30 16:01:21;;;;;;;7.97;7.28;;;;;;;;;;6235862;28;20288;-70
2023/06/30 16:04:26;;;;;;;7.93;7.13;;;;;;;;;;6235480;28;20296;-70
2023/06/30 16:07:31;;;;;;;11.23;7.60;;;;;;;;;;6235231;28;20240;-70
2023/06/30 16:10:37;;;;;;;13.07;8.13;;;;;;;;;;6235547;28;20237;-69
2023/06/30 16:13:42;;;;;;;10.23;8.27;;;;;;;;;;6236169;28;20300;-69
2023/06/30 16:16:46;;;;;;;14.18;8.85;;;;;;;;;;6235460;28;20580;-70
2023/06/30 16:19:51;;;;;;;7.45;6.80;;;;;;;;;;6235078;28;20537;-69
2023/06/30 16:22:56;;;;;;;7.80;5.50;;;;;;;;;;6234695;28;20334;-69
2023/06/30 16:26:02;;;;;;;5.78;5.28;;;;;;;;;;6234900;28;20270;-69
2023/06/30 16:29:07;;;;;;;5.88;5.28;;;;;;;;;;6234170;28;20312;-69
2023/06/30 16:32:11;;;;;;;7.70;6.78;;;;;;;;;;6235061;28;20349;-69
2023/06/30 16:35:16;;;;;;;5.85;5.30;;;;;;;;;;6234306;28;20304;-68
2023/06/30 16:38:20;;;;;;;6.60;5.05;;;;;;;;;;6235217;28;20300;-69
2023/06/30 16:41:26;;;;;;;6.40;5.03;;;;;;;;;;6234138;28;20276;-68
2023/06/30 16:44:31;;;;;;;5.18;4.88;;;;;;;;;;6234668;28;20297;-69
2023/06/30 16:47:35;;;;;;;5.47;3.92;;;;;;;;;;6234708;28;20244;-68
2023/06/30 16:50:40;;;;;;;3.28;3.10;;;;;;;;;;6235323;28;20328;-69
2023/06/30 16:53:44;;;;;;;3.17;3.10;;;;;;;;;;6234267;28;20468;-69
2023/06/30 16:56:50;;;;;;;3.53;3.22;;;;;;;;;;6234938;28;20269;-70
2023/06/30 16:59:55;;;;;;;3.53;3.30;;;;;;;;;;6234430;28;20300;-69
2023/06/30 17:02:59;;;;;;;3.38;3.28;;;;;;;;;;6234173;28;20335;-69
2023/06/30 17:06:04;;;;;;;4.07;3.90;;;;;;;;;;6235101;28;20237;-69
2023/06/30 17:09:09;;;;;;;4.72;3.67;;;;;;;;;;6234778;28;20307;-71
2023/06/30 17:12:16;;;;;;;5.03;4.35;;;;;;;;;;6235169;28;20269;-69
2023/06/30 17:15:21;;;;;;;6.30;3.97;;;;;;;;;;6234559;28;20288;-68
2023/06/30 17:18:25;;;;;;;5.05;4.18;;;;;;;;;;6234243;28;20453;-69
2023/06/30 17:21:30;;;;;;;4.25;3.95;;;;;;;;;;6234546;28;20435;-69
2023/06/30 17:24:34;;;;;;;5.30;4.80;;;;;;;;;;6234601;28;20298;-69
2023/06/30 18:16:00;;;;;;;4.78;4.03;;;;;;;;;;6607677;23;20231;-69
2023/06/30 18:19:05;;;;;;;4.80;4.10;;;;;;;;;;6002483;29;20307;-70
2023/06/30 18:22:10;;;;;;;4.03;3.67;;;;;;;;;;6002553;29;20252;-68
2023/06/30 18:25:14;;;;;;;4.50;3.97;;;;;;;;;;6002033;29;20311;-70
2023/06/30 18:28:19;;;;;;;5.93;4.30;;;;;;;;;;6001828;29;20303;-70
2023/06/30 18:31:25;;;;;;;4.38;4.18;;;;;;;;;;6002260;29;20272;-70
2023/06/30 18:34:29;;;;;;;5.68;4.18;;;;;;;;;;6001735;29;20588;-69
2023/06/30 18:37:34;;;;;;;5.22;4.65;;;;;;;;;;6002156;29;20295;-69
2023/06/30 18:40:39;;;;;;;4.78;4.40;;;;;;;;;;6002790;29;20248;-69
2023/06/30 18:43:43;;;;;;;4.35;4.15;;;;;;;;;;6002000;29;20399;-69
2023/06/30 18:46:49;;;;;;;5.88;4.80;;;;;;;;;;6001878;29;20256;-69
2023/06/30 18:49:54;;;;;;;6.90;4.95;;;;;;;;;;6001072;29;20319;-70
2023/06/30 18:52:59;;;;;;;5.70;5.38;;;;;;;;;;6001665;29;20302;-69
2023/06/30 18:56:03;;;;;;;8.20;5.55;;;;;;;;;;6002338;29;20251;-71
2023/06/30 18:59:08;;;;;;;7.45;4.90;;;;;;;;;;6013691;29;20406;-70
2023/06/30 19:02:14;;;;;;;10.82;4.82;;;;;;;;;;6024524;29;20243;-69
2023/06/30 19:05:19;;;;;;;6.57;5.20;;;;;;;;;;6023870;29;20306;-68
2023/06/30 19:08:23;;;;;;;16.52;5.32;;;;;;;;;;6024407;29;20314;-67
2023/06/30 19:11:28;;;;;;;9.13;5.10;;;;;;;;;;6025827;29;20255;-69
2023/06/30 19:14:32;;;;;;;4.65;4.35;;;;;;;;;;6023694;29;20302;-69
2023/06/30 19:17:38;;;;;;;7.07;5.10;;;;;;;;;;6023584;29;20501;-68
2023/06/30 19:20:43;;;;;;;9.73;5.05;;;;;;;;;;6024360;29;20246;-69